sensor_id;sensor_type;location;lat;lon;timestamp;P1;durP1;ratioP1;P2;durP2;ratioP2
52786;SDS011;38661;53.152;5.846;2024-03-17T00:01:45;6.55;;;3.63;;
52786;SDS011;38661;53.152;5.846;2024-03-17T00:04:11;8.93;;;3.60;;
52786;SDS011;38661;53.152;5.846;2024-03-17T00:06:36;6.53;;;3.40;;
52786;SDS011;38661;53.152;5.846;2024-03-17T00:09:02;8.98;;;3.25;;
52786;SDS011;38661;53.152;5.846;2024-03-17T00:11:31;7.97;;;3.40;;
52786;SDS011;38661;53.152;5.846;2024-03-17T00:13:58;4.63;;;2.40;;
52786;SDS011;38661;53.152;5.846;2024-03-17T00:16:23;6.15;;;2.55;;
52786;SDS011;38661;53.152;5.846;2024-03-17T00:18:49;4.85;;;2.85;;
52786;SDS011;38661;53.152;5.846;2024-03-17T00:21:15;6.35;;;2.92;;
52786;SDS011;38661;53.152;5.846;2024-03-17T00:23:40;3.78;;;2.13;;
52786;SDS011;38661;53.152;5.846;2024-03-17T00:26:06;6.15;;;3.10;;
52786;SDS011;38661;53.152;5.846;2024-03-17T00:28:33;4.95;;;2.53;;
52786;SDS011;38661;53.152;5.846;2024-03-17T00:30:58;7.00;;;2.53;;
52786;SDS011;38661;53.152;5.846;2024-03-17T00:33:24;7.05;;;2.92;;
52786;SDS011;38661;53.152;5.846;2024-03-17T00:35:50;5.88;;;2.97;;
52786;SDS011;38661;53.152;5.846;2024-03-17T00:38:16;6.78;;;2.85;;
52786;SDS011;38661;53.152;5.846;2024-03-17T00:40:42;4.60;;;2.70;;
52786;SDS011;38661;53.152;5.846;2024-03-17T00:43:10;5.70;;;2.60;;
52786;SDS011;38661;53.152;5.846;2024-03-17T00:45:37;5.25;;;2.53;;
52786;SDS011;38661;53.152;5.846;2024-03-17T00:48:03;4.50;;;2.65;;
52786;SDS011;38661;53.152;5.846;2024-03-17T00:50:31;6.47;;;2.90;;
52786;SDS011;38661;53.152;5.846;2024-03-17T00:52:57;4.35;;;2.17;;
52786;SDS011;38661;53.152;5.846;2024-03-17T00:55:23;6.40;;;2.17;;
52786;SDS011;38661;53.152;5.846;2024-03-17T00:57:48;4.40;;;2.15;;
52786;SDS011;38661;53.152;5.846;2024-03-17T01:00:14;4.63;;;1.83;;
52786;SDS011;38661;53.152;5.846;2024-03-17T01:02:40;5.05;;;2.22;;
52786;SDS011;38661;53.152;5.846;2024-03-17T01:05:06;4.55;;;2.08;;
52786;SDS011;38661;53.152;5.846;2024-03-17T01:07:33;6.68;;;2.75;;
52786;SDS011;38661;53.152;5.846;2024-03-17T01:09:59;7.15;;;2.25;;
52786;SDS011;38661;53.152;5.846;2024-03-17T01:12:28;7.65;;;2.80;;
52786;SDS011;38661;53.152;5.846;2024-03-17T01:14:53;6.07;;;2.17;;
52786;SDS011;38661;53.152;5.846;2024-03-17T01:17:19;7.50;;;2.20;;
52786;SDS011;38661;53.152;5.846;2024-03-17T01:19:45;3.40;;;2.15;;
52786;SDS011;38661;53.152;5.846;2024-03-17T01:22:11;5.45;;;2.00;;
52786;SDS011;38661;53.152;5.846;2024-03-17T01:24:37;5.97;;;2.17;;
52786;SDS011;38661;53.152;5.846;2024-03-17T01:27:05;8.82;;;2.25;;
52786;SDS011;38661;53.152;5.846;2024-03-17T01:29:31;6.63;;;2.42;;
52786;SDS011;38661;53.152;5.846;2024-03-17T01:31:57;3.67;;;1.73;;
52786;SDS011;38661;53.152;5.846;2024-03-17T01:34:23;5.28;;;2.30;;
52786;SDS011;38661;53.152;5.846;2024-03-17T01:36:48;6.95;;;2.67;;
52786;SDS011;38661;53.152;5.846;2024-03-17T01:39:14;4.53;;;2.30;;
52786;SDS011;38661;53.152;5.846;2024-03-17T01:41:41;5.90;;;2.42;;
52786;SDS011;38661;53.152;5.846;2024-03-17T01:44:07;5.53;;;2.20;;
52786;SDS011;38661;53.152;5.846;2024-03-17T01:46:33;7.05;;;3.42;;
52786;SDS011;38661;53.152;5.846;2024-03-17T01:48:59;7.38;;;3.28;;
52786;SDS011;38661;53.152;5.846;2024-03-17T01:51:25;8.00;;;3.17;;
52786;SDS011;38661;53.152;5.846;2024-03-17T01:53:51;7.22;;;3.65;;
52786;SDS011;38661;53.152;5.846;2024-03-17T01:56:18;5.53;;;2.90;;
52786;SDS011;38661;53.152;5.846;2024-03-17T01:58:44;11.13;;;3.50;;
52786;SDS011;38661;53.152;5.846;2024-03-17T02:01:11;7.40;;;3.22;;
52786;SDS011;38661;53.152;5.846;2024-03-17T02:03:41;6.30;;;2.75;;
52786;SDS011;38661;53.152;5.846;2024-03-17T02:06:07;5.95;;;2.65;;
52786;SDS011;38661;53.152;5.846;2024-03-17T02:08:55;5.47;;;2.72;;
52786;SDS011;38661;53.152;5.846;2024-03-17T02:11:25;7.95;;;3.13;;
52786;SDS011;38661;53.152;5.846;2024-03-17T02:13:52;6.55;;;3.13;;
52786;SDS011;38661;53.152;5.846;2024-03-17T02:16:19;6.90;;;3.53;;
52786;SDS011;38661;53.152;5.846;2024-03-17T02:18:45;6.35;;;3.25;;
52786;SDS011;38661;53.152;5.846;2024-03-17T02:21:14;5.05;;;3.28;;
52786;SDS011;38661;53.152;5.846;2024-03-17T02:23:43;4.40;;;2.90;;
52786;SDS011;38661;53.152;5.846;2024-03-17T02:26:09;10.18;;;3.78;;
52786;SDS011;38661;53.152;5.846;2024-03-17T02:28:39;7.43;;;3.72;;
52786;SDS011;38661;53.152;5.846;2024-03-17T02:31:07;7.03;;;2.97;;
52786;SDS011;38661;53.152;5.846;2024-03-17T02:33:34;8.23;;;3.45;;
52786;SDS011;38661;53.152;5.846;2024-03-17T02:36:00;5.60;;;3.13;;
52786;SDS011;38661;53.152;5.846;2024-03-17T02:38:26;6.75;;;3.70;;
52786;SDS011;38661;53.152;5.846;2024-03-17T02:41:10;7.40;;;3.38;;
52786;SDS011;38661;53.152;5.846;2024-03-17T02:43:36;5.78;;;3.22;;
52786;SDS011;38661;53.152;5.846;2024-03-17T02:46:02;6.38;;;3.72;;
52786;SDS011;38661;53.152;5.846;2024-03-17T02:48:33;12.77;;;4.10;;
52786;SDS011;38661;53.152;5.846;2024-03-17T02:50:59;10.43;;;3.88;;
52786;SDS011;38661;53.152;5.846;2024-03-17T02:53:24;8.45;;;3.50;;
52786;SDS011;38661;53.152;5.846;2024-03-17T02:55:50;8.70;;;3.50;;
52786;SDS011;38661;53.152;5.846;2024-03-17T02:58:16;7.65;;;3.20;;
52786;SDS011;38661;53.152;5.846;2024-03-17T03:00:44;8.35;;;3.10;;
52786;SDS011;38661;53.152;5.846;2024-03-17T03:03:10;5.50;;;3.20;;
52786;SDS011;38661;53.152;5.846;2024-03-17T03:05:35;6.10;;;2.83;;
52786;SDS011;38661;53.152;5.846;2024-03-17T03:08:01;7.22;;;2.78;;
52786;SDS011;38661;53.152;5.846;2024-03-17T03:10:26;9.18;;;3.78;;
52786;SDS011;38661;53.152;5.846;2024-03-17T03:12:52;7.88;;;3.40;;
52786;SDS011;38661;53.152;5.846;2024-03-17T03:15:18;10.27;;;3.85;;
52786;SDS011;38661;53.152;5.846;2024-03-17T03:17:43;9.15;;;3.17;;
52786;SDS011;38661;53.152;5.846;2024-03-17T03:20:09;8.82;;;3.42;;
52786;SDS011;38661;53.152;5.846;2024-03-17T03:22:35;9.23;;;3.63;;
52786;SDS011;38661;53.152;5.846;2024-03-17T03:25:01;6.63;;;3.03;;
52786;SDS011;38661;53.152;5.846;2024-03-17T03:27:27;10.40;;;3.05;;
52786;SDS011;38661;53.152;5.846;2024-03-17T03:29:53;10.55;;;3.95;;
52786;SDS011;38661;53.152;5.846;2024-03-17T03:32:21;9.05;;;3.20;;
52786;SDS011;38661;53.152;5.846;2024-03-17T03:34:46;8.15;;;3.17;;
52786;SDS011;38661;53.152;5.846;2024-03-17T03:37:12;11.52;;;3.20;;
52786;SDS011;38661;53.152;5.846;2024-03-17T03:39:38;9.25;;;3.63;;
52786;SDS011;38661;53.152;5.846;2024-03-17T03:42:04;7.63;;;3.13;;
52786;SDS011;38661;53.152;5.846;2024-03-17T03:44:29;7.38;;;3.30;;
52786;SDS011;38661;53.152;5.846;2024-03-17T03:46:55;7.22;;;3.95;;
52786;SDS011;38661;53.152;5.846;2024-03-17T03:49:26;7.78;;;3.20;;
52786;SDS011;38661;53.152;5.846;2024-03-17T03:51:51;7.47;;;2.67;;
52786;SDS011;38661;53.152;5.846;2024-03-17T03:54:17;7.47;;;3.13;;
52786;SDS011;38661;53.152;5.846;2024-03-17T03:56:42;9.82;;;2.80;;
52786;SDS011;38661;53.152;5.846;2024-03-17T03:59:09;8.07;;;3.20;;
52786;SDS011;38661;53.152;5.846;2024-03-17T04:01:35;11.20;;;2.78;;
52786;SDS011;38661;53.152;5.846;2024-03-17T04:04:00;10.20;;;3.53;;
52786;SDS011;38661;53.152;5.846;2024-03-17T04:06:26;6.20;;;3.03;;
52786;SDS011;38661;53.152;5.846;2024-03-17T04:08:52;8.10;;;3.22;;
52786;SDS011;38661;53.152;5.846;2024-03-17T04:11:18;10.55;;;3.92;;
52786;SDS011;38661;53.152;5.846;2024-03-17T04:13:43;7.45;;;3.00;;
52786;SDS011;38661;53.152;5.846;2024-03-17T04:16:09;8.50;;;3.28;;
52786;SDS011;38661;53.152;5.846;2024-03-17T04:18:35;11.65;;;3.70;;
52786;SDS011;38661;53.152;5.846;2024-03-17T04:21:02;7.53;;;2.90;;
52786;SDS011;38661;53.152;5.846;2024-03-17T04:23:29;8.30;;;3.20;;
52786;SDS011;38661;53.152;5.846;2024-03-17T04:25:57;9.35;;;2.70;;
52786;SDS011;38661;53.152;5.846;2024-03-17T04:28:23;5.07;;;3.28;;
52786;SDS011;38661;53.152;5.846;2024-03-17T04:30:49;8.20;;;3.00;;
52786;SDS011;38661;53.152;5.846;2024-03-17T04:33:15;7.47;;;3.05;;
52786;SDS011;38661;53.152;5.846;2024-03-17T04:35:41;9.90;;;2.95;;
52786;SDS011;38661;53.152;5.846;2024-03-17T04:38:07;4.40;;;2.70;;
52786;SDS011;38661;53.152;5.846;2024-03-17T04:40:34;10.48;;;3.55;;
52786;SDS011;38661;53.152;5.846;2024-03-17T04:43:00;8.55;;;3.60;;
52786;SDS011;38661;53.152;5.846;2024-03-17T04:45:26;9.93;;;2.97;;
52786;SDS011;38661;53.152;5.846;2024-03-17T04:47:52;5.72;;;2.50;;
52786;SDS011;38661;53.152;5.846;2024-03-17T04:50:18;6.85;;;2.83;;
52786;SDS011;38661;53.152;5.846;2024-03-17T04:52:44;3.53;;;2.30;;
52786;SDS011;38661;53.152;5.846;2024-03-17T04:55:09;8.32;;;2.97;;
52786;SDS011;38661;53.152;5.846;2024-03-17T04:57:35;7.88;;;2.53;;
52786;SDS011;38661;53.152;5.846;2024-03-17T05:00:02;9.48;;;2.47;;
52786;SDS011;38661;53.152;5.846;2024-03-17T05:02:32;8.48;;;2.65;;
52786;SDS011;38661;53.152;5.846;2024-03-17T05:04:58;8.82;;;2.53;;
52786;SDS011;38661;53.152;5.846;2024-03-17T05:07:24;7.90;;;2.55;;
52786;SDS011;38661;53.152;5.846;2024-03-17T05:09:49;10.05;;;2.38;;
52786;SDS011;38661;53.152;5.846;2024-03-17T05:12:15;14.65;;;3.00;;
52786;SDS011;38661;53.152;5.846;2024-03-17T05:14:41;11.18;;;2.47;;
52786;SDS011;38661;53.152;5.846;2024-03-17T05:17:07;7.65;;;3.08;;
52786;SDS011;38661;53.152;5.846;2024-03-17T05:19:33;7.32;;;2.45;;
52786;SDS011;38661;53.152;5.846;2024-03-17T05:21:59;6.80;;;2.50;;
52786;SDS011;38661;53.152;5.846;2024-03-17T05:24:25;13.85;;;3.40;;
52786;SDS011;38661;53.152;5.846;2024-03-17T05:26:50;10.48;;;2.45;;
52786;SDS011;38661;53.152;5.846;2024-03-17T05:29:16;10.30;;;2.97;;
52786;SDS011;38661;53.152;5.846;2024-03-17T05:31:42;10.35;;;2.33;;
52786;SDS011;38661;53.152;5.846;2024-03-17T05:34:09;8.38;;;2.95;;
52786;SDS011;38661;53.152;5.846;2024-03-17T05:36:35;8.13;;;3.10;;
52786;SDS011;38661;53.152;5.846;2024-03-17T05:39:01;9.32;;;2.53;;
52786;SDS011;38661;53.152;5.846;2024-03-17T05:41:27;7.53;;;2.60;;
52786;SDS011;38661;53.152;5.846;2024-03-17T05:43:53;11.07;;;2.67;;
52786;SDS011;38661;53.152;5.846;2024-03-17T05:46:23;11.95;;;2.45;;
52786;SDS011;38661;53.152;5.846;2024-03-17T05:48:50;8.27;;;2.92;;
52786;SDS011;38661;53.152;5.846;2024-03-17T05:51:16;10.27;;;3.13;;
52786;SDS011;38661;53.152;5.846;2024-03-17T05:53:42;8.10;;;2.67;;
52786;SDS011;38661;53.152;5.846;2024-03-17T05:56:10;11.88;;;2.85;;
52786;SDS011;38661;53.152;5.846;2024-03-17T05:58:37;6.18;;;2.83;;
52786;SDS011;38661;53.152;5.846;2024-03-17T06:01:04;11.13;;;2.40;;
52786;SDS011;38661;53.152;5.846;2024-03-17T06:03:32;8.40;;;2.58;;
52786;SDS011;38661;53.152;5.846;2024-03-17T06:06:01;11.60;;;2.75;;
52786;SDS011;38661;53.152;5.846;2024-03-17T06:08:27;7.97;;;3.05;;
52786;SDS011;38661;53.152;5.846;2024-03-17T06:10:53;6.53;;;2.60;;
52786;SDS011;38661;53.152;5.846;2024-03-17T06:13:18;8.63;;;2.67;;
52786;SDS011;38661;53.152;5.846;2024-03-17T06:15:44;4.65;;;2.33;;
52786;SDS011;38661;53.152;5.846;2024-03-17T06:18:12;11.07;;;3.45;;
52786;SDS011;38661;53.152;5.846;2024-03-17T06:20:46;7.70;;;3.22;;
52786;SDS011;38661;53.152;5.846;2024-03-17T06:23:13;13.20;;;3.13;;
52786;SDS011;38661;53.152;5.846;2024-03-17T06:25:49;7.03;;;3.20;;
52786;SDS011;38661;53.152;5.846;2024-03-17T06:28:16;10.13;;;3.38;;
52786;SDS011;38661;53.152;5.846;2024-03-17T06:30:42;7.38;;;3.03;;
52786;SDS011;38661;53.152;5.846;2024-03-17T06:33:11;13.18;;;3.63;;
52786;SDS011;38661;53.152;5.846;2024-03-17T06:35:37;8.35;;;3.90;;
52786;SDS011;38661;53.152;5.846;2024-03-17T06:38:04;13.30;;;4.25;;
52786;SDS011;38661;53.152;5.846;2024-03-17T06:40:29;11.20;;;4.15;;
52786;SDS011;38661;53.152;5.846;2024-03-17T06:42:56;10.25;;;3.70;;
52786;SDS011;38661;53.152;5.846;2024-03-17T06:45:22;7.20;;;3.42;;
52786;SDS011;38661;53.152;5.846;2024-03-17T06:47:48;10.13;;;3.33;;
52786;SDS011;38661;53.152;5.846;2024-03-17T06:50:13;9.70;;;3.85;;
52786;SDS011;38661;53.152;5.846;2024-03-17T06:52:40;7.45;;;4.18;;
52786;SDS011;38661;53.152;5.846;2024-03-17T06:55:06;6.40;;;3.15;;
52786;SDS011;38661;53.152;5.846;2024-03-17T06:57:32;9.52;;;3.70;;
52786;SDS011;38661;53.152;5.846;2024-03-17T06:59:59;11.48;;;4.38;;
52786;SDS011;38661;53.152;5.846;2024-03-17T07:02:25;7.97;;;3.97;;
52786;SDS011;38661;53.152;5.846;2024-03-17T07:04:51;7.43;;;3.63;;
52786;SDS011;38661;53.152;5.846;2024-03-17T07:07:16;14.27;;;3.90;;
52786;SDS011;38661;53.152;5.846;2024-03-17T07:09:42;8.68;;;3.83;;
52786;SDS011;38661;53.152;5.846;2024-03-17T07:12:08;9.73;;;3.75;;
52786;SDS011;38661;53.152;5.846;2024-03-17T07:14:36;8.15;;;3.85;;
52786;SDS011;38661;53.152;5.846;2024-03-17T07:17:02;10.35;;;4.03;;
52786;SDS011;38661;53.152;5.846;2024-03-17T07:19:28;12.73;;;4.03;;
52786;SDS011;38661;53.152;5.846;2024-03-17T07:21:56;8.90;;;4.88;;
52786;SDS011;38661;53.152;5.846;2024-03-17T07:24:22;8.35;;;3.92;;
52786;SDS011;38661;53.152;5.846;2024-03-17T07:26:48;10.25;;;4.20;;
52786;SDS011;38661;53.152;5.846;2024-03-17T07:29:14;13.80;;;5.40;;
52786;SDS011;38661;53.152;5.846;2024-03-17T07:31:40;9.27;;;4.32;;
52786;SDS011;38661;53.152;5.846;2024-03-17T07:34:06;11.13;;;4.72;;
52786;SDS011;38661;53.152;5.846;2024-03-17T07:36:32;11.15;;;3.88;;
52786;SDS011;38661;53.152;5.846;2024-03-17T07:38:58;10.95;;;4.20;;
52786;SDS011;38661;53.152;5.846;2024-03-17T07:41:23;12.57;;;4.68;;
52786;SDS011;38661;53.152;5.846;2024-03-17T07:43:50;8.90;;;4.53;;
52786;SDS011;38661;53.152;5.846;2024-03-17T07:46:16;8.80;;;3.42;;
52786;SDS011;38661;53.152;5.846;2024-03-17T07:48:42;9.90;;;4.18;;
52786;SDS011;38661;53.152;5.846;2024-03-17T07:51:10;10.10;;;4.20;;
52786;SDS011;38661;53.152;5.846;2024-03-17T07:53:37;8.95;;;3.90;;
52786;SDS011;38661;53.152;5.846;2024-03-17T07:56:04;6.13;;;3.65;;
52786;SDS011;38661;53.152;5.846;2024-03-17T07:58:34;7.88;;;3.88;;
52786;SDS011;38661;53.152;5.846;2024-03-17T08:01:06;10.43;;;4.18;;
52786;SDS011;38661;53.152;5.846;2024-03-17T08:03:34;11.15;;;4.45;;
52786;SDS011;38661;53.152;5.846;2024-03-17T08:06:01;9.20;;;4.88;;
52786;SDS011;38661;53.152;5.846;2024-03-17T08:08:28;8.18;;;4.28;;
52786;SDS011;38661;53.152;5.846;2024-03-17T08:10:57;10.30;;;4.65;;
52786;SDS011;38661;53.152;5.846;2024-03-17T08:13:23;9.10;;;5.28;;
52786;SDS011;38661;53.152;5.846;2024-03-17T08:15:59;8.32;;;4.53;;
52786;SDS011;38661;53.152;5.846;2024-03-17T08:18:25;14.50;;;5.78;;
52786;SDS011;38661;53.152;5.846;2024-03-17T08:20:54;8.57;;;4.82;;
52786;SDS011;38661;53.152;5.846;2024-03-17T08:23:21;9.00;;;4.63;;
52786;SDS011;38661;53.152;5.846;2024-03-17T08:25:53;11.27;;;5.10;;
52786;SDS011;38661;53.152;5.846;2024-03-17T08:28:19;9.00;;;5.20;;
52786;SDS011;38661;53.152;5.846;2024-03-17T08:30:55;9.95;;;5.47;;
52786;SDS011;38661;53.152;5.846;2024-03-17T08:33:23;11.20;;;5.75;;
52786;SDS011;38661;53.152;5.846;2024-03-17T08:35:53;11.93;;;5.63;;
52786;SDS011;38661;53.152;5.846;2024-03-17T08:38:26;13.88;;;6.28;;
52786;SDS011;38661;53.152;5.846;2024-03-17T08:40:55;14.95;;;7.20;;
52786;SDS011;38661;53.152;5.846;2024-03-17T08:43:22;10.95;;;5.63;;
52786;SDS011;38661;53.152;5.846;2024-03-17T08:45:58;9.93;;;5.97;;
52786;SDS011;38661;53.152;5.846;2024-03-17T08:48:29;13.35;;;6.72;;
52786;SDS011;38661;53.152;5.846;2024-03-17T08:50:58;11.57;;;6.72;;
52786;SDS011;38661;53.152;5.846;2024-03-17T08:53:26;11.82;;;7.07;;
52786;SDS011;38661;53.152;5.846;2024-03-17T08:55:53;9.95;;;5.63;;
52786;SDS011;38661;53.152;5.846;2024-03-17T08:58:20;11.27;;;6.78;;
52786;SDS011;38661;53.152;5.846;2024-03-17T09:00:46;15.20;;;7.45;;
52786;SDS011;38661;53.152;5.846;2024-03-17T09:03:12;16.10;;;10.48;;
52786;SDS011;38661;53.152;5.846;2024-03-17T09:05:38;12.65;;;10.20;;
52786;SDS011;38661;53.152;5.846;2024-03-17T09:08:05;12.98;;;9.07;;
52786;SDS011;38661;53.152;5.846;2024-03-17T09:10:41;13.30;;;8.00;;
52786;SDS011;38661;53.152;5.846;2024-03-17T09:13:15;13.60;;;9.98;;
52786;SDS011;38661;53.152;5.846;2024-03-17T09:18:25;19.40;;;11.77;;
52786;SDS011;38661;53.152;5.846;2024-03-17T09:21:01;17.40;;;10.43;;
52786;SDS011;38661;53.152;5.846;2024-03-17T09:23:29;13.32;;;10.50;;
52786;SDS011;38661;53.152;5.846;2024-03-17T09:25:59;14.75;;;9.43;;
52786;SDS011;38661;53.152;5.846;2024-03-17T09:28:27;17.48;;;9.05;;
52786;SDS011;38661;53.152;5.846;2024-03-17T09:30:54;13.07;;;8.35;;
52786;SDS011;38661;53.152;5.846;2024-03-17T09:33:20;16.98;;;10.73;;
52786;SDS011;38661;53.152;5.846;2024-03-17T09:35:56;17.58;;;13.43;;
52786;SDS011;38661;53.152;5.846;2024-03-17T09:38:24;18.23;;;12.68;;
52786;SDS011;38661;53.152;5.846;2024-03-17T09:40:50;16.33;;;11.32;;
52786;SDS011;38661;53.152;5.846;2024-03-17T09:43:20;14.82;;;9.07;;
52786;SDS011;38661;53.152;5.846;2024-03-17T09:45:47;19.02;;;9.13;;
52786;SDS011;38661;53.152;5.846;2024-03-17T09:48:14;17.67;;;9.27;;
52786;SDS011;38661;53.152;5.846;2024-03-17T09:50:43;15.35;;;8.90;;
52786;SDS011;38661;53.152;5.846;2024-03-17T09:53:26;14.98;;;8.68;;
52786;SDS011;38661;53.152;5.846;2024-03-17T09:55:57;14.45;;;8.70;;
52786;SDS011;38661;53.152;5.846;2024-03-17T09:58:41;12.35;;;8.45;;
52786;SDS011;38661;53.152;5.846;2024-03-17T10:01:16;14.10;;;8.80;;
52786;SDS011;38661;53.152;5.846;2024-03-17T10:06:13;12.52;;;8.57;;
52786;SDS011;38661;53.152;5.846;2024-03-17T10:08:44;13.02;;;8.13;;
52786;SDS011;38661;53.152;5.846;2024-03-17T10:11:15;12.77;;;8.50;;
52786;SDS011;38661;53.152;5.846;2024-03-17T10:13:46;13.65;;;8.52;;
52786;SDS011;38661;53.152;5.846;2024-03-17T10:16:27;12.98;;;8.27;;
52786;SDS011;38661;53.152;5.846;2024-03-17T10:19:05;14.40;;;8.77;;
52786;SDS011;38661;53.152;5.846;2024-03-17T10:21:47;18.60;;;8.73;;
52786;SDS011;38661;53.152;5.846;2024-03-17T10:24:20;13.10;;;9.10;;
52786;SDS011;38661;53.152;5.846;2024-03-17T10:26:50;13.03;;;8.63;;
52786;SDS011;38661;53.152;5.846;2024-03-17T10:29:24;20.67;;;9.40;;
52786;SDS011;38661;53.152;5.846;2024-03-17T10:31:51;14.43;;;9.00;;
52786;SDS011;38661;53.152;5.846;2024-03-17T10:34:18;11.13;;;7.93;;
52786;SDS011;38661;53.152;5.846;2024-03-17T10:36:47;12.95;;;8.70;;
52786;SDS011;38661;53.152;5.846;2024-03-17T10:39:23;17.17;;;10.50;;
52786;SDS011;38661;53.152;5.846;2024-03-17T10:42:00;14.65;;;10.05;;
52786;SDS011;38661;53.152;5.846;2024-03-17T10:44:27;10.95;;;7.95;;
52786;SDS011;38661;53.152;5.846;2024-03-17T10:46:54;11.40;;;7.90;;
52786;SDS011;38661;53.152;5.846;2024-03-17T10:49:23;11.75;;;9.73;;
52786;SDS011;38661;53.152;5.846;2024-03-17T10:51:56;13.77;;;8.75;;
52786;SDS011;38661;53.152;5.846;2024-03-17T10:54:27;12.63;;;8.52;;
52786;SDS011;38661;53.152;5.846;2024-03-17T10:56:57;14.57;;;8.55;;
52786;SDS011;38661;53.152;5.846;2024-03-17T10:59:48;14.02;;;8.25;;
52786;SDS011;38661;53.152;5.846;2024-03-17T11:04:51;10.65;;;7.50;;
52786;SDS011;38661;53.152;5.846;2024-03-17T11:07:18;15.95;;;8.55;;
52786;SDS011;38661;53.152;5.846;2024-03-17T11:09:45;12.75;;;8.52;;
52786;SDS011;38661;53.152;5.846;2024-03-17T11:17:45;11.40;;;7.35;;
52786;SDS011;38661;53.152;5.846;2024-03-17T11:20:21;10.77;;;8.18;;
52786;SDS011;38661;53.152;5.846;2024-03-17T11:22:52;12.85;;;8.02;;
52786;SDS011;38661;53.152;5.846;2024-03-17T11:28:08;10.45;;;7.03;;
52786;SDS011;38661;53.152;5.846;2024-03-17T11:38:57;11.23;;;7.03;;
52786;SDS011;38661;53.152;5.846;2024-03-17T11:46:39;10.13;;;7.68;;
52786;SDS011;38661;53.152;5.846;2024-03-17T11:49:05;11.55;;;7.38;;
52786;SDS011;38661;53.152;5.846;2024-03-17T11:51:33;9.75;;;7.45;;
52786;SDS011;38661;53.152;5.846;2024-03-17T11:54:00;9.25;;;7.25;;
52786;SDS011;38661;53.152;5.846;2024-03-17T11:56:26;8.77;;;6.85;;
52786;SDS011;38661;53.152;5.846;2024-03-17T11:59:05;13.15;;;7.95;;
52786;SDS011;38661;53.152;5.846;2024-03-17T12:01:34;21.00;;;7.97;;
52786;SDS011;38661;53.152;5.846;2024-03-17T12:04:07;9.60;;;6.72;;
52786;SDS011;38661;53.152;5.846;2024-03-17T12:06:33;9.77;;;7.45;;
52786;SDS011;38661;53.152;5.846;2024-03-17T12:09:08;10.48;;;8.07;;
52786;SDS011;38661;53.152;5.846;2024-03-17T12:11:36;12.95;;;8.15;;
52786;SDS011;38661;53.152;5.846;2024-03-17T12:14:18;8.73;;;7.82;;
52786;SDS011;38661;53.152;5.846;2024-03-17T12:16:54;11.82;;;7.53;;
52786;SDS011;38661;53.152;5.846;2024-03-17T12:19:21;10.98;;;7.88;;
52786;SDS011;38661;53.152;5.846;2024-03-17T12:21:52;12.98;;;8.98;;
52786;SDS011;38661;53.152;5.846;2024-03-17T12:24:20;12.13;;;9.00;;
52786;SDS011;38661;53.152;5.846;2024-03-17T12:26:48;10.52;;;8.02;;
52786;SDS011;38661;53.152;5.846;2024-03-17T12:32:21;10.93;;;8.70;;
52786;SDS011;38661;53.152;5.846;2024-03-17T12:34:51;9.85;;;8.55;;
52786;SDS011;38661;53.152;5.846;2024-03-17T12:37:25;12.85;;;8.70;;
52786;SDS011;38661;53.152;5.846;2024-03-17T12:39:58;11.60;;;9.15;;
52786;SDS011;38661;53.152;5.846;2024-03-17T12:42:28;10.18;;;8.27;;
52786;SDS011;38661;53.152;5.846;2024-03-17T12:44:55;17.13;;;13.15;;
52786;SDS011;38661;53.152;5.846;2024-03-17T12:47:26;12.45;;;10.02;;
52786;SDS011;38661;53.152;5.846;2024-03-17T12:49:57;10.82;;;8.38;;
52786;SDS011;38661;53.152;5.846;2024-03-17T12:52:30;11.18;;;8.82;;
52786;SDS011;38661;53.152;5.846;2024-03-17T12:57:44;9.82;;;8.85;;
52786;SDS011;38661;53.152;5.846;2024-03-17T13:03:29;10.52;;;9.23;;
52786;SDS011;38661;53.152;5.846;2024-03-17T13:05:54;9.88;;;8.32;;
52786;SDS011;38661;53.152;5.846;2024-03-17T13:08:20;8.68;;;7.68;;
52786;SDS011;38661;53.152;5.846;2024-03-17T13:10:46;9.73;;;7.88;;
52786;SDS011;38661;53.152;5.846;2024-03-17T13:13:12;11.85;;;8.60;;
52786;SDS011;38661;53.152;5.846;2024-03-17T13:15:41;9.10;;;7.60;;
52786;SDS011;38661;53.152;5.846;2024-03-17T13:18:07;9.80;;;8.80;;
52786;SDS011;38661;53.152;5.846;2024-03-17T13:20:34;10.20;;;7.47;;
52786;SDS011;38661;53.152;5.846;2024-03-17T13:23:00;9.57;;;8.13;;
52786;SDS011;38661;53.152;5.846;2024-03-17T13:25:27;8.68;;;7.68;;
52786;SDS011;38661;53.152;5.846;2024-03-17T13:28:03;10.75;;;7.78;;
52786;SDS011;38661;53.152;5.846;2024-03-17T13:30:31;10.20;;;7.75;;
52786;SDS011;38661;53.152;5.846;2024-03-17T13:32:58;11.40;;;8.02;;
52786;SDS011;38661;53.152;5.846;2024-03-17T13:35:28;10.75;;;7.97;;
52786;SDS011;38661;53.152;5.846;2024-03-17T13:37:55;11.60;;;8.93;;
52786;SDS011;38661;53.152;5.846;2024-03-17T13:40:25;13.68;;;8.57;;
52786;SDS011;38661;53.152;5.846;2024-03-17T13:42:54;12.05;;;8.02;;
52786;SDS011;38661;53.152;5.846;2024-03-17T13:45:22;10.32;;;8.70;;
52786;SDS011;38661;53.152;5.846;2024-03-17T13:47:54;12.88;;;8.40;;
52786;SDS011;38661;53.152;5.846;2024-03-17T13:50:22;9.25;;;7.82;;
52786;SDS011;38661;53.152;5.846;2024-03-17T13:52:48;12.80;;;8.55;;
52786;SDS011;38661;53.152;5.846;2024-03-17T13:55:18;10.35;;;7.95;;
52786;SDS011;38661;53.152;5.846;2024-03-17T13:57:46;9.07;;;8.00;;
52786;SDS011;38661;53.152;5.846;2024-03-17T14:00:25;11.30;;;7.93;;
52786;SDS011;38661;53.152;5.846;2024-03-17T14:02:53;9.38;;;7.70;;
52786;SDS011;38661;53.152;5.846;2024-03-17T14:05:20;10.15;;;8.20;;
52786;SDS011;38661;53.152;5.846;2024-03-17T14:07:47;12.23;;;8.70;;
52786;SDS011;38661;53.152;5.846;2024-03-17T14:10:17;10.82;;;8.13;;
52786;SDS011;38661;53.152;5.846;2024-03-17T14:12:44;10.60;;;8.43;;
52786;SDS011;38661;53.152;5.846;2024-03-17T14:15:11;10.23;;;8.80;;
52786;SDS011;38661;53.152;5.846;2024-03-17T14:17:38;11.15;;;8.63;;
52786;SDS011;38661;53.152;5.846;2024-03-17T14:20:15;14.57;;;8.67;;
52786;SDS011;38661;53.152;5.846;2024-03-17T14:22:43;9.38;;;8.40;;
52786;SDS011;38661;53.152;5.846;2024-03-17T14:25:14;10.70;;;8.20;;
52786;SDS011;38661;53.152;5.846;2024-03-17T14:27:41;12.07;;;8.13;;
52786;SDS011;38661;53.152;5.846;2024-03-17T14:30:07;10.77;;;8.07;;
52786;SDS011;38661;53.152;5.846;2024-03-17T14:32:39;11.93;;;8.85;;
52786;SDS011;38661;53.152;5.846;2024-03-17T14:35:05;11.80;;;9.07;;
52786;SDS011;38661;53.152;5.846;2024-03-17T14:37:31;10.13;;;8.27;;
52786;SDS011;38661;53.152;5.846;2024-03-17T14:39:57;9.70;;;8.43;;
52786;SDS011;38661;53.152;5.846;2024-03-17T14:42:24;9.80;;;8.45;;
52786;SDS011;38661;53.152;5.846;2024-03-17T14:44:50;10.68;;;9.35;;
52786;SDS011;38661;53.152;5.846;2024-03-17T14:47:18;10.88;;;8.88;;
52786;SDS011;38661;53.152;5.846;2024-03-17T14:49:45;13.60;;;9.00;;
52786;SDS011;38661;53.152;5.846;2024-03-17T14:52:10;11.02;;;7.88;;
52786;SDS011;38661;53.152;5.846;2024-03-17T14:54:36;11.73;;;8.57;;
52786;SDS011;38661;53.152;5.846;2024-03-17T14:57:04;10.82;;;8.20;;
52786;SDS011;38661;53.152;5.846;2024-03-17T14:59:30;14.23;;;8.55;;
52786;SDS011;38661;53.152;5.846;2024-03-17T15:01:56;10.88;;;8.10;;
52786;SDS011;38661;53.152;5.846;2024-03-17T15:04:23;10.65;;;8.20;;
52786;SDS011;38661;53.152;5.846;2024-03-17T15:06:52;10.27;;;8.07;;
52786;SDS011;38661;53.152;5.846;2024-03-17T15:09:19;10.82;;;8.57;;
52786;SDS011;38661;53.152;5.846;2024-03-17T15:11:46;9.73;;;7.72;;
52786;SDS011;38661;53.152;5.846;2024-03-17T15:14:15;11.80;;;8.15;;
52786;SDS011;38661;53.152;5.846;2024-03-17T15:16:41;11.13;;;8.52;;
52786;SDS011;38661;53.152;5.846;2024-03-17T15:19:07;14.15;;;8.10;;
52786;SDS011;38661;53.152;5.846;2024-03-17T15:21:33;9.95;;;8.35;;
52786;SDS011;38661;53.152;5.846;2024-03-17T15:23:59;10.07;;;7.80;;